createdAt,value
2022-12-03T00:02:40.119Z,38.40
2022-12-03T00:08:00.020Z,38.30
2022-12-03T00:13:20.196Z,38.20
2022-12-03T00:18:40.359Z,38.30
2022-12-03T00:24:00.570Z,38.20
2022-12-03T00:29:20.659Z,38.30
2022-12-03T00:34:40.969Z,38.30
2022-12-03T00:40:01.269Z,38.30
2022-12-03T00:45:21.563Z,38.30
2022-12-03T00:50:41.743Z,38.30
2022-12-03T00:56:01.879Z,38.50
2022-12-03T01:01:22.226Z,38.30
2022-12-03T01:06:42.413Z,38.30
2022-12-03T01:12:02.364Z,38.40
2022-12-03T01:17:22.488Z,38.20
2022-12-03T01:22:42.670Z,38.30
2022-12-03T01:28:02.886Z,38.30
2022-12-03T01:33:22.920Z,38.30
2022-12-03T01:38:43.129Z,38.30
2022-12-03T01:44:03.211Z,38.20
2022-12-03T01:49:23.318Z,38.20
2022-12-03T01:54:43.367Z,38.30
2022-12-03T02:00:03.581Z,38.20
2022-12-03T02:05:23.809Z,38.20
2022-12-03T02:10:43.976Z,38.30
2022-12-03T02:16:04.196Z,38.30
2022-12-03T02:21:24.286Z,38.20
2022-12-03T02:26:44.502Z,38.30
2022-12-03T02:32:04.639Z,38.30
2022-12-03T02:37:24.802Z,38.30
2022-12-03T02:42:44.868Z,38.30
2022-12-03T02:48:05.016Z,38.30
2022-12-03T02:53:25.086Z,38.20
2022-12-03T02:58:45.259Z,38.20
2022-12-03T03:04:05.301Z,38.10
2022-12-03T03:09:25.441Z,38.10
2022-12-03T03:14:45.466Z,38.10
2022-12-03T03:20:05.580Z,38.10
2022-12-03T03:25:25.727Z,38.10
2022-12-03T03:30:46.013Z,38.10
2022-12-03T03:36:05.979Z,38.10
2022-12-03T03:41:26.029Z,38.00
2022-12-03T03:46:46.007Z,38.10
2022-12-03T03:52:06.183Z,38.10
2022-12-03T03:57:26.225Z,38.40
2022-12-03T04:02:46.361Z,38.00
2022-12-03T04:08:06.624Z,38.10
2022-12-03T04:13:26.722Z,38.00
2022-12-03T04:18:46.784Z,38.00
2022-12-03T04:24:07.013Z,38.10
2022-12-03T04:29:27.124Z,38.00
2022-12-03T04:34:47.378Z,38.00
2022-12-03T04:40:07.487Z,38.00
2022-12-03T04:45:27.770Z,38.00
2022-12-03T04:50:47.985Z,37.90
2022-12-03T04:56:08.262Z,37.90
2022-12-03T05:01:28.332Z,37.90
2022-12-03T05:06:48.415Z,37.90
2022-12-03T05:12:08.505Z,38.00
2022-12-03T05:17:28.675Z,37.90
2022-12-03T05:22:48.809Z,37.90
2022-12-03T05:28:08.796Z,37.90
2022-12-03T05:33:28.809Z,37.90
2022-12-03T05:38:49.049Z,37.80
2022-12-03T05:44:09.169Z,37.70
2022-12-03T05:49:29.334Z,37.80
2022-12-03T05:54:49.410Z,37.80
2022-12-03T06:00:09.622Z,37.80
2022-12-03T06:05:29.697Z,37.80
2022-12-03T06:10:49.921Z,37.80
2022-12-03T06:16:10.020Z,37.80
2022-12-03T06:21:30.226Z,37.80
2022-12-03T06:26:50.398Z,37.70
2022-12-03T06:32:10.570Z,37.70
2022-12-03T06:37:30.702Z,37.70
2022-12-03T06:42:50.879Z,37.80
2022-12-03T06:48:10.972Z,37.80
2022-12-03T06:53:31.149Z,37.70
2022-12-03T06:58:51.306Z,37.70
2022-12-03T07:04:11.395Z,37.70
2022-12-03T07:09:31.579Z,37.70
2022-12-03T07:14:52.145Z,37.70
2022-12-03T07:20:12.286Z,37.70
2022-12-03T07:25:32.319Z,37.70
2022-12-03T07:30:52.594Z,37.60
2022-12-03T07:36:12.605Z,37.60
2022-12-03T07:41:32.901Z,37.60
2022-12-03T07:46:53.118Z,37.50
2022-12-03T07:52:13.205Z,37.50
2022-12-03T07:57:33.258Z,37.50
2022-12-03T08:02:53.389Z,37.50
2022-12-03T08:08:13.660Z,37.60
2022-12-03T08:13:33.693Z,37.60
2022-12-03T08:18:53.745Z,37.60
2022-12-03T08:24:13.891Z,37.60
2022-12-03T08:29:34.056Z,37.50
2022-12-03T08:34:54.393Z,37.50
2022-12-03T08:40:14.927Z,37.50
2022-12-03T08:45:35.098Z,37.40
2022-12-03T08:50:55.160Z,37.40
2022-12-03T08:56:15.399Z,37.40
2022-12-03T09:01:35.476Z,37.40
2022-12-03T09:06:55.552Z,37.40
2022-12-03T09:12:15.668Z,37.40
2022-12-03T09:17:35.837Z,37.40
2022-12-03T09:22:55.944Z,37.30
2022-12-03T09:28:16.182Z,37.30
2022-12-03T09:33:36.273Z,37.30
2022-12-03T09:38:56.384Z,37.30
2022-12-03T09:44:18.114Z,37.30
2022-12-03T09:49:38.202Z,37.20
2022-12-03T09:54:58.629Z,37.30
2022-12-03T10:00:18.985Z,37.30
2022-12-03T10:05:42.523Z,37.20
2022-12-03T10:11:05.114Z,37.20
2022-12-03T10:16:25.383Z,37.20
2022-12-03T10:21:45.357Z,37.30
2022-12-03T10:27:05.575Z,37.20
2022-12-03T10:32:25.642Z,37.20
2022-12-03T10:37:45.838Z,37.20
2022-12-03T10:43:06.011Z,37.20
2022-12-03T10:48:26.235Z,37.20
2022-12-03T10:53:46.353Z,37.20
2022-12-03T10:59:06.566Z,37.20
2022-12-03T11:04:26.535Z,37.10
2022-12-03T11:09:46.760Z,37.20
2022-12-03T11:15:06.918Z,37.20
2022-12-03T11:20:27.222Z,37.10
2022-12-03T11:25:47.589Z,37.20
2022-12-03T11:31:08.702Z,37.20
2022-12-03T11:36:54.163Z,37.20
2022-12-03T11:42:08.626Z,37.20
2022-12-03T11:47:28.588Z,37.10
2022-12-03T11:52:49.011Z,37.10
2022-12-03T11:58:09.087Z,37.10
2022-12-03T12:03:29.493Z,37.10
2022-12-03T12:08:50.003Z,37.20
2022-12-03T12:14:10.295Z,37.10
2022-12-03T12:19:30.315Z,37.20
2022-12-03T12:24:50.491Z,37.10
2022-12-03T12:30:10.538Z,37.10
2022-12-03T12:35:30.748Z,37.10
2022-12-03T12:40:50.735Z,37.10
2022-12-03T12:46:45.565Z,37.20
2022-12-03T12:51:51.329Z,37.10
2022-12-03T12:57:11.454Z,37.20
2022-12-03T13:02:31.662Z,37.30
2022-12-03T13:07:51.687Z,37.30
2022-12-03T13:13:11.761Z,37.40
2022-12-03T13:18:31.814Z,37.40
2022-12-03T13:23:51.982Z,37.40
2022-12-03T13:29:12.149Z,37.40
2022-12-03T13:34:32.277Z,37.50
2022-12-03T13:39:52.929Z,37.40
2022-12-03T13:45:13.154Z,37.50
2022-12-03T13:50:33.219Z,37.50
2022-12-03T13:55:53.399Z,37.50
2022-12-03T14:01:13.566Z,37.50
2022-12-03T14:06:33.603Z,37.50
2022-12-03T14:11:53.786Z,37.60
2022-12-03T14:17:13.951Z,37.50
2022-12-03T14:22:33.951Z,37.50
2022-12-03T14:27:54.086Z,37.50
2022-12-03T14:33:14.258Z,37.50
2022-12-03T14:38:34.283Z,37.50
2022-12-03T14:43:54.431Z,37.50
2022-12-03T14:49:14.559Z,37.50
2022-12-03T14:54:34.760Z,37.50
2022-12-03T14:59:55.084Z,37.50
2022-12-03T15:05:15.042Z,37.40
2022-12-03T15:10:35.258Z,37.30
2022-12-03T15:15:55.322Z,37.30
2022-12-03T15:21:15.392Z,37.40
2022-12-03T15:26:35.802Z,37.30
2022-12-03T15:31:56.015Z,37.40
2022-12-03T15:37:16.102Z,37.40
2022-12-03T15:42:36.137Z,37.40
2022-12-03T15:47:56.372Z,37.40
2022-12-03T15:53:16.578Z,37.40
2022-12-03T15:58:36.694Z,37.30
2022-12-03T16:03:56.818Z,37.40
2022-12-03T16:09:31.978Z,37.60
2022-12-03T16:14:51.735Z,37.80
2022-12-03T16:20:12.001Z,37.80
2022-12-03T16:25:32.046Z,37.80
2022-12-03T16:30:52.313Z,37.80
2022-12-03T16:36:12.189Z,38.10
2022-12-03T16:41:32.347Z,37.80
2022-12-03T16:46:52.611Z,37.90
2022-12-03T16:52:12.922Z,38.00
2022-12-03T16:57:34.055Z,37.90
2022-12-03T17:02:54.388Z,38.00
2022-12-03T17:08:14.744Z,39.30
2022-12-03T17:13:34.731Z,39.00
2022-12-03T17:18:54.808Z,38.50
2022-12-03T17:24:15.005Z,38.40
2022-12-03T17:29:35.042Z,38.90
2022-12-03T17:34:56.399Z,38.20
2022-12-03T17:40:16.487Z,38.40
2022-12-03T17:45:36.801Z,38.00
2022-12-03T17:50:57.020Z,38.10
2022-12-03T17:56:17.233Z,37.10
2022-12-03T18:01:37.387Z,36.80
2022-12-03T18:07:00.864Z,36.30
2022-12-03T18:12:22.570Z,36.60
2022-12-03T18:17:42.766Z,36.50
2022-12-03T18:23:06.069Z,36.90
2022-12-03T18:28:26.206Z,37.00
2022-12-03T18:33:46.341Z,37.10
2022-12-03T18:39:06.471Z,36.80
2022-12-03T18:44:26.650Z,37.00
2022-12-03T18:49:46.768Z,36.80
2022-12-03T18:55:06.999Z,36.80
2022-12-03T19:00:27.449Z,36.90
2022-12-03T19:05:47.802Z,36.20
2022-12-03T19:11:08.348Z,36.90
2022-12-03T19:16:28.656Z,37.00
2022-12-03T19:21:49.088Z,36.90
2022-12-03T19:27:09.801Z,36.70
2022-12-03T19:32:30.112Z,39.90
2022-12-03T19:37:50.382Z,39.60
2022-12-03T19:43:10.538Z,39.00
2022-12-03T19:48:30.846Z,38.50
2022-12-03T19:53:50.995Z,38.10
2022-12-03T19:59:11.217Z,38.10
2022-12-03T20:04:31.345Z,38.20
2022-12-03T20:09:51.692Z,38.20
2022-12-03T20:15:11.848Z,38.20
2022-12-03T20:20:32.093Z,38.30
2022-12-03T20:25:52.503Z,38.30
2022-12-03T20:31:12.938Z,38.40
2022-12-03T20:36:32.893Z,38.30
2022-12-03T20:41:53.149Z,38.30
2022-12-03T20:47:13.404Z,38.20
2022-12-03T21:03:21.917Z,38.30
2022-12-03T21:08:42.763Z,38.10
2022-12-03T21:14:03.098Z,38.20
2022-12-03T21:19:23.335Z,38.10
2022-12-03T21:24:43.621Z,38.20
2022-12-03T21:30:03.868Z,38.10
2022-12-03T21:35:24.048Z,38.10
2022-12-03T21:40:44.267Z,38.20
2022-12-03T21:46:04.606Z,38.30
2022-12-03T21:51:44.485Z,38.30
2022-12-03T21:57:04.572Z,38.20
2022-12-03T22:02:24.790Z,38.20
2022-12-03T22:07:46.865Z,38.30
2022-12-03T22:13:07.006Z,38.20
2022-12-03T22:18:27.098Z,38.20
2022-12-03T22:23:47.442Z,38.30
2022-12-03T22:29:07.490Z,38.20
2022-12-03T22:34:27.746Z,38.30
2022-12-03T22:39:47.857Z,38.30
2022-12-03T22:45:07.944Z,38.40
2022-12-03T22:50:28.015Z,38.50
2022-12-03T22:55:48.059Z,38.40
2022-12-03T23:01:08.173Z,38.50
2022-12-03T23:06:28.296Z,38.40
2022-12-03T23:11:48.378Z,38.20
2022-12-03T23:17:08.642Z,38.40
2022-12-03T23:22:28.754Z,38.30
2022-12-03T23:27:48.994Z,38.40
2022-12-03T23:33:09.132Z,39.70
2022-12-03T23:38:29.302Z,40.50
2022-12-03T23:43:49.608Z,40.60
2022-12-03T23:49:09.852Z,40.60
2022-12-03T23:54:32.160Z,40.50
2022-12-03T23:59:52.493Z,40.30
